Time;durP1;ratioP1;P1;durP2;ratioP2;P2;SDS_P1;SDS_P2;PMS_P1;PMS_P2;Temp;Humidity;BMP_temperature;BMP_pressure;BME280_temperature;BME280_humidity;BME280_pressure;Samples;Min_cycle;Max_cycle;Signal;HPM_P1;HPM_P2
2022/01/06 00:01:04;;;;;;;14.45;6.22;;;;;;;7.18;94.21;149462.75;1639766;85;20920;-63
2022/01/06 00:03:31;;;;;;;11.38;6.47;;;;;;;7.16;94.10;149458.84;1639429;85;21139;-60
2022/01/06 00:06:03;;;;;;;8.75;5.90;;;;;;;7.15;94.11;149456.25;1639447;85;21023;-59
2022/01/06 00:08:28;;;;;;;9.10;5.75;;;;;;;7.15;94.00;149456.25;1638758;85;21118;-60
2022/01/06 00:10:56;;;;;;;11.00;6.28;;;;;;;7.14;93.99;149452.41;1639655;86;21062;-62
2022/01/06 00:13:32;;;;;;;12.85;5.97;;;;;;;7.11;93.99;149445.91;1639348;87;21062;-62
2022/01/06 00:23:42;;;;;;;;;;;;;;;7.07;94.23;149435.56;1641709;86;21480;-59
2022/01/06 00:26:09;;;;;;;12.18;7.03;;;;;;;7.09;94.22;149440.75;1639723;85;20120;-60
2022/01/06 00:28:37;;;;;;;11.20;6.87;;;;;;;7.10;94.26;149442.06;1638967;85;21063;-59
2022/01/06 00:31:03;;;;;;;13.45;6.90;;;;;;;7.11;94.28;149445.91;1639507;85;21019;-59
2022/01/06 00:33:31;;;;;;;13.75;6.90;;;;;;;7.13;94.38;149451.09;1638833;87;21030;-59
2022/01/06 00:35:58;;;;;;;13.45;6.95;;;;;;;7.16;94.34;149458.84;1639370;85;21432;-58
2022/01/06 00:38:26;;;;;;;12.20;6.28;;;;;;;7.19;94.21;149465.34;1639063;87;21066;-58
2022/01/06 00:40:53;;;;;;;10.50;6.70;;;;;;;7.20;94.12;149466.66;1639733;86;22018;-58
2022/01/06 00:43:20;;;;;;;11.05;6.83;;;;;;;7.22;94.03;149471.83;1639659;87;21011;-57
2022/01/06 00:45:47;;;;;;;11.55;6.75;;;;;;;7.23;93.93;149474.42;1639555;86;21535;-59
2022/01/06 00:48:13;;;;;;;14.60;7.35;;;;;;;7.25;93.77;149480.86;1639726;87;20971;-59
2022/01/06 00:50:42;;;;;;;10.72;6.95;;;;;;;7.27;93.66;149484.77;1639444;86;21070;-58
2022/01/06 00:53:08;;;;;;;12.25;7.70;;;;;;;7.25;93.35;149479.59;1639805;85;21776;-62
2022/01/06 00:55:36;;;;;;;12.23;7.35;;;;;;;7.25;93.24;149479.59;1641183;87;21055;-62
2022/01/06 00:58:04;;;;;;;14.90;7.83;;;;;;;7.22;93.27;149471.83;1641811;87;21010;-58
2022/01/06 01:00:39;;;;;;;11.30;7.42;;;;;;;7.20;93.01;149466.66;1641295;87;21249;-58
2022/01/06 01:03:18;;;;;;;14.78;7.90;;;;;;;7.16;92.93;149458.84;1642186;86;20920;-58
2022/01/06 01:05:48;;;;;;;15.30;7.70;;;;;;;7.12;92.72;149448.50;1641297;87;21518;-59
2022/01/06 01:08:15;;;;;;;12.68;7.20;;;;;;;7.07;92.52;149434.25;1641492;87;20984;-58
2022/01/06 01:10:42;;;;;;;12.03;7.53;;;;;;;6.99;92.49;149414.88;1640817;87;21150;-58
2022/01/06 01:13:11;;;;;;;10.40;6.95;;;;;;;6.92;92.56;149398.05;1641390;87;21031;-58
2022/01/06 01:15:46;;;;;;;13.03;8.05;;;;;;;6.84;92.61;149378.63;1641076;86;21097;-58
2022/01/06 01:18:10;;;;;;;11.93;7.83;;;;;;;6.78;92.74;149361.80;1640894;87;21838;-59
2022/01/06 01:20:37;;;;;;;14.07;7.67;;;;;;;6.70;92.80;149342.37;1640953;87;22137;-58
2022/01/06 01:23:03;;;;;;;12.82;7.72;;;;;;;6.62;93.09;149321.69;1642016;87;21055;-59
2022/01/06 01:25:31;;;;;;;13.93;8.08;;;;;;;6.58;93.49;149312.63;1641241;86;21026;-59
2022/01/06 01:27:58;;;;;;;11.50;6.45;;;;;;;6.57;93.68;149310.03;1642011;86;21460;-59
2022/01/06 01:30:32;;;;;;;12.73;7.60;;;;;;;6.56;93.82;149308.77;1641325;87;21167;-59
2022/01/06 01:33:00;;;;;;;11.85;7.90;;;;;;;6.53;93.90;149301.02;1641737;86;21027;-63
2022/01/06 01:35:32;;;;;;;15.48;8.30;;;;;;;6.51;93.86;149294.53;1641310;86;21098;-59
2022/01/06 01:37:59;;;;;;;14.28;8.40;;;;;;;6.43;93.84;149275.11;1641529;87;21031;-59
2022/01/06 01:40:27;;;;;;;11.15;7.33;;;;;;;6.37;94.01;149260.88;1641373;86;20994;-58
2022/01/06 01:42:54;;;;;;;12.88;7.90;;;;;;;6.29;94.08;149241.47;1641664;87;21189;-58
2022/01/06 01:45:27;;;;;;;13.48;7.75;;;;;;;6.24;94.25;149228.53;1641304;86;21111;-58
2022/01/06 01:47:48;;;;;;;11.40;7.55;;;;;;;6.22;94.77;149222.09;1640710;87;21114;-62
2022/01/06 01:50:16;;;;;;;12.00;7.47;;;;;;;6.21;94.88;149220.78;1641505;87;20996;-62
2022/01/06 01:52:46;;;;;;;13.60;7.85;;;;;;;6.20;95.09;149218.20;1641734;87;20959;-62
2022/01/06 01:55:19;;;;;;;13.65;7.90;;;;;;;6.19;95.26;149215.62;1639722;85;21220;-62
2022/01/06 01:57:45;;;;;;;15.18;8.58;;;;;;;6.19;95.48;149215.62;1638558;87;21027;-61
2022/01/06 02:00:14;;;;;;;13.62;7.97;;;;;;;6.18;95.69;149213.03;1639416;85;21533;-58
2022/01/06 02:02:41;;;;;;;13.28;7.60;;;;;;;6.18;95.86;149213.03;1639736;87;21082;-58
2022/01/06 02:05:08;;;;;;;15.15;8.50;;;;;;;6.16;96.06;149207.86;1640154;85;20960;-57
2022/01/06 02:07:38;;;;;;;11.18;7.12;;;;;;;6.14;96.17;149202.69;1639361;86;21059;-57
2022/01/06 02:10:09;;;;;;;15.05;8.93;;;;;;;6.12;96.37;149197.53;1639421;86;21079;-64
2022/01/06 02:12:38;;;;;;;14.10;7.87;;;;;;;6.11;96.39;149194.94;1639429;85;21138;-61
2022/01/06 02:15:06;;;;;;;15.85;7.90;;;;;;;6.07;96.32;149184.55;1639158;87;21133;-64
2022/01/06 02:17:34;;;;;;;14.70;8.10;;;;;;;5.95;96.43;149156.08;1639527;85;21519;-58
2022/01/06 02:20:03;;;;;;;14.85;7.72;;;;;;;5.95;96.43;149156.08;1639301;87;21123;-58
2022/01/06 02:22:29;;;;;;;15.23;7.95;;;;;;;5.93;96.58;149150.91;1639299;87;21019;-58
2022/01/06 02:24:56;;;;;;;13.48;8.10;;;;;;;5.92;96.65;149148.33;1639190;87;21118;-63
2022/01/06 02:27:24;;;;;;;13.18;7.85;;;;;;;5.89;96.74;149140.58;1639273;85;21085;-59
2022/01/06 02:29:51;;;;;;;15.70;8.40;;;;;;;5.87;97.03;149135.41;1639542;86;21048;-58
2022/01/06 02:32:21;;;;;;;13.55;8.55;;;;;;;5.87;97.20;149135.41;1639323;87;21168;-59
2022/01/06 02:34:47;;;;;;;15.88;8.50;;;;;;;5.87;97.39;149135.41;1639306;85;21539;-58
2022/01/06 02:37:15;;;;;;;18.30;8.85;;;;;;;5.91;97.79;149145.75;1639816;87;21077;-58
2022/01/06 02:39:43;;;;;;;14.53;8.28;;;;;;;5.97;98.16;149161.25;1639459;86;21102;-58
2022/01/06 02:42:11;;;;;;;15.05;8.40;;;;;;;6.02;98.37;149174.22;1639630;87;21099;-59
2022/01/06 02:44:38;;;;;;;13.75;8.05;;;;;;;6.11;98.67;149194.94;1639266;87;22158;-58
2022/01/06 02:47:06;;;;;;;19.12;8.78;;;;;;;6.20;98.32;149218.20;1639848;87;20967;-58
2022/01/06 02:49:34;;;;;;;13.50;8.13;;;;;;;6.20;98.32;149218.20;1639444;86;21069;-58
2022/01/06 02:52:01;;;;;;;13.15;8.28;;;;;;;6.23;98.14;149225.95;1639805;87;21079;-58
2022/01/06 02:54:27;;;;;;;15.23;7.90;;;;;;;6.26;97.65;149233.70;1639978;85;21512;-58
2022/01/06 02:56:54;;;;;;;12.25;7.50;;;;;;;6.26;97.65;149233.70;1641603;86;21336;-58
2022/01/06 02:59:21;;;;;;;12.80;7.83;;;;;;;6.29;97.67;149241.47;1641142;87;21583;-58
2022/01/06 03:01:48;;;;;;;14.58;9.03;;;;;;;6.29;97.67;149241.47;1640818;86;21042;-58
2022/01/06 03:04:14;;;;;;;15.15;8.05;;;;;;;6.32;97.83;149246.69;1641195;87;20932;-58
2022/01/06 03:06:41;;;;;;;16.27;9.33;;;;;;;6.33;97.81;149250.53;1640549;87;21539;-57
2022/01/06 03:09:07;;;;;;;17.42;8.48;;;;;;;6.37;97.79;149260.88;1641494;86;21108;-58
2022/01/06 03:11:41;;;;;;;14.28;8.90;;;;;;;6.43;97.72;149275.11;1640989;87;21023;-59
2022/01/06 03:14:04;;;;;;;14.50;8.98;;;;;;;6.48;97.67;149286.77;1641028;86;20975;-59
2022/01/06 03:16:31;;;;;;;16.67;8.70;;;;;;;6.51;97.42;149295.80;1641186;86;21585;-59
2022/01/06 03:18:58;;;;;;;16.73;9.38;;;;;;;6.51;97.16;149295.80;1641727;86;22092;-59
2022/01/06 03:21:25;;;;;;;14.25;9.35;;;;;;;6.50;96.88;149293.20;1641319;86;21930;-63
2022/01/06 03:23:51;;;;;;;14.55;8.55;;;;;;;6.48;96.84;149288.03;1641406;87;21610;-62
2022/01/06 03:26:18;;;;;;;13.80;8.48;;;;;;;6.46;96.86;149282.88;1641520;86;20995;-63
2022/01/06 03:28:44;;;;;;;14.13;9.13;;;;;;;6.47;96.76;149284.19;1641416;87;21065;-62
2022/01/06 03:31:11;;;;;;;14.50;8.10;;;;;;;6.44;96.64;149277.69;1641767;87;21050;-62
2022/01/06 03:33:38;;;;;;;14.38;8.30;;;;;;;6.38;96.37;149262.19;1641188;86;21144;-62
2022/01/06 03:36:05;;;;;;;14.70;8.48;;;;;;;6.34;96.14;149251.84;1641936;86;21417;-61
2022/01/06 03:38:32;;;;;;;15.28;8.73;;;;;;;6.28;95.96;149238.88;1641463;87;21043;-63
2022/01/06 03:40:59;;;;;;;15.98;8.08;;;;;;;6.22;96.03;149223.37;1641604;87;21077;-63
2022/01/06 03:43:25;;;;;;;13.80;8.20;;;;;;;6.18;96.12;149211.72;1641504;86;21897;-63
2022/01/06 03:45:52;;;;;;;14.28;8.90;;;;;;;6.18;96.35;149211.72;1641495;87;21412;-59
2022/01/06 03:48:18;;;;;;;16.85;8.80;;;;;;;6.12;96.45;149197.53;1641509;87;21011;-59
2022/01/06 03:50:46;;;;;;;13.48;8.43;;;;;;;6.12;96.45;149197.53;1640104;87;21133;-59
2022/01/06 03:53:13;;;;;;;15.88;8.55;;;;;;;6.09;96.66;149191.03;1641025;87;21463;-59
2022/01/06 03:55:42;;;;;;;15.10;8.15;;;;;;;6.10;96.78;149192.36;1638904;85;21074;-59
2022/01/06 03:58:11;;;;;;;15.35;8.98;;;;;;;6.10;96.78;149192.36;1639297;86;21147;-59
2022/01/06 04:00:37;;;;;;;14.53;8.23;;;;;;;6.15;96.99;149205.28;1639136;85;21523;-62
2022/01/06 04:03:03;;;;;;;13.28;8.33;;;;;;;6.14;97.07;149203.97;1639737;85;21004;-63
2022/01/06 04:05:33;;;;;;;17.20;8.23;;;;;;;6.15;97.06;149205.28;1638983;85;21538;-59
2022/01/06 04:08:00;;;;;;;17.77;8.83;;;;;;;6.15;97.22;149205.28;1639505;85;21066;-63
2022/01/06 04:10:28;;;;;;;16.93;9.15;;;;;;;6.20;97.54;149218.20;1638921;85;21011;-63
2022/01/06 04:12:55;;;;;;;15.58;9.38;;;;;;;6.20;97.54;149218.20;1639416;86;21547;-63
2022/01/06 04:15:25;;;;;;;17.67;9.18;;;;;;;6.25;97.54;149231.13;1639241;87;21032;-63
2022/01/06 04:17:50;;;;;;;16.90;8.98;;;;;;;6.33;97.33;149249.27;1639188;85;21050;-63
2022/01/06 04:20:17;;;;;;;15.55;9.10;;;;;;;6.33;97.33;149249.27;1639523;87;21046;-59
2022/01/06 04:22:43;;;;;;;20.35;9.60;;;;;;;6.36;97.11;149257.02;1639161;87;21702;-59
2022/01/06 04:25:10;;;;;;;13.88;8.75;;;;;;;6.38;97.00;149263.45;1639451;85;21923;-60
2022/01/06 04:27:37;;;;;;;15.05;8.58;;;;;;;6.37;96.69;149259.59;1638971;86;21130;-59
2022/01/06 04:30:05;;;;;;;13.75;8.45;;;;;;;6.38;96.63;149262.19;1639652;85;20935;-61
2022/01/06 04:32:34;;;;;;;15.53;8.90;;;;;;;6.37;96.34;149260.88;1639728;86;21002;-57
2022/01/06 04:35:00;;;;;;;14.25;8.93;;;;;;;6.37;96.34;149260.88;1639628;87;21481;-57
2022/01/06 04:37:28;;;;;;;16.77;9.68;;;;;;;6.39;96.36;149264.78;1639265;87;21046;-57
2022/01/06 04:39:55;;;;;;;14.60;9.38;;;;;;;6.39;96.34;149264.78;1639379;85;21121;-60
2022/01/06 04:42:21;;;;;;;17.92;9.88;;;;;;;6.39;96.25;149266.05;1639222;85;21088;-59
2022/01/06 04:44:48;;;;;;;14.45;8.50;;;;;;;6.39;96.17;149266.05;1639194;85;21542;-59
2022/01/06 04:47:19;;;;;;;13.65;8.50;;;;;;;6.39;96.00;149264.78;1639127;86;21035;-59
2022/01/06 04:49:46;;;;;;;13.90;8.53;;;;;;;6.37;95.72;149259.59;1638991;86;21075;-58
2022/01/06 04:52:13;;;;;;;17.45;9.40;;;;;;;6.32;95.69;149246.69;1639174;87;20956;-58
2022/01/06 04:54:40;;;;;;;16.32;8.35;;;;;;;6.27;95.76;149236.30;1638751;85;21138;-59
2022/01/06 04:57:07;;;;;;;15.32;8.90;;;;;;;6.25;95.64;149229.84;1639546;85;21433;-62
2022/01/06 04:59:34;;;;;;;14.58;9.15;;;;;;;6.23;95.69;149225.95;1639121;87;21634;-62
2022/01/06 05:02:01;;;;;;;18.20;8.58;;;;;;;6.22;95.94;149223.37;1639555;86;21075;-62
2022/01/06 05:04:27;;;;;;;14.70;8.83;;;;;;;6.26;96.10;149232.44;1639071;86;21038;-62
2022/01/06 05:06:54;;;;;;;15.05;9.50;;;;;;;6.25;96.23;149231.13;1639388;86;21101;-62
2022/01/06 05:09:20;;;;;;;15.20;9.10;;;;;;;6.30;96.36;149244.09;1639640;86;21208;-62
2022/01/06 05:11:47;;;;;;;16.15;9.55;;;;;;;6.34;96.48;149251.84;1639140;86;21156;-62
2022/01/06 05:14:13;;;;;;;17.25;9.55;;;;;;;6.35;96.23;149254.44;1639647;85;20975;-62
2022/01/06 05:16:40;;;;;;;18.32;9.38;;;;;;;6.37;95.98;149259.59;1638978;85;21109;-63
2022/01/06 05:19:07;;;;;;;17.92;9.40;;;;;;;6.36;95.65;149258.28;1639831;85;21028;-63
2022/01/06 05:21:34;;;;;;;16.42;9.98;;;;;;;6.34;95.71;149251.84;1639279;85;21038;-63
2022/01/06 05:24:01;;;;;;;19.55;10.58;;;;;;;6.31;95.83;149245.36;1639817;85;21113;-63
2022/01/06 05:26:28;;;;;;;15.72;9.20;;;;;;;6.32;95.99;149246.69;1639114;86;21106;-62
2022/01/06 05:28:54;;;;;;;14.75;8.45;;;;;;;6.33;95.90;149249.27;1639553;86;21010;-63
2022/01/06 05:31:21;;;;;;;18.10;9.63;;;;;;;6.33;95.86;149249.27;1639139;86;21078;-62
2022/01/06 05:33:48;;;;;;;18.77;10.65;;;;;;;6.32;95.85;149246.69;1639245;86;21113;-63
2022/01/06 05:36:14;;;;;;;19.95;10.23;;;;;;;6.30;95.83;149242.78;1639417;85;21521;-62
2022/01/06 05:38:44;;;;;;;17.12;9.75;;;;;;;6.30;95.83;149242.78;1638999;85;21496;-62
2022/01/06 05:41:11;;;;;;;18.57;10.28;;;;;;;6.29;96.17;149241.47;1639426;86;21484;-63
2022/01/06 05:43:38;;;;;;;18.57;9.73;;;;;;;6.29;96.17;149241.47;1638498;85;21081;-62
2022/01/06 05:46:04;;;;;;;17.57;10.58;;;;;;;6.30;96.19;149244.09;1639278;85;21385;-62
2022/01/06 05:48:31;;;;;;;14.68;9.08;;;;;;;6.35;96.46;149254.44;1638207;86;21204;-61
2022/01/06 05:50:58;;;;;;;14.28;9.03;;;;;;;6.43;96.53;149275.11;1638879;86;20975;-63
2022/01/06 05:53:24;;;;;;;18.70;9.93;;;;;;;6.48;96.43;149288.03;1638477;85;21603;-62
2022/01/06 05:55:51;;;;;;;17.37;9.65;;;;;;;6.53;96.21;149301.02;1639478;86;21097;-62
2022/01/06 05:58:18;;;;;;;19.57;10.45;;;;;;;6.56;95.97;149308.77;1640628;86;20944;-63
2022/01/06 06:00:45;;;;;;;18.87;9.80;;;;;;;6.57;95.67;149311.34;1640352;87;21421;-64
2022/01/06 06:03:11;;;;;;;15.63;9.70;;;;;;;6.58;95.46;149313.94;1640872;86;21079;-63
2022/01/06 06:05:41;;;;;;;20.08;10.13;;;;;;;6.58;95.26;149313.94;1640970;86;21035;-63
2022/01/06 06:08:09;;;;;;;16.07;9.50;;;;;;;6.59;95.12;149316.53;1642046;87;21032;-62
2022/01/06 06:10:37;;;;;;;18.42;9.65;;;;;;;6.59;95.05;149316.53;1641538;86;21055;-62
2022/01/06 06:13:04;;;;;;;13.78;8.90;;;;;;;6.61;94.97;149319.11;1641739;86;21156;-63
2022/01/06 06:15:34;;;;;;;15.90;9.53;;;;;;;6.65;94.88;149330.77;1641131;87;21062;-62
2022/01/06 06:18:01;;;;;;;15.90;9.75;;;;;;;6.70;94.81;149342.37;1641682;87;20998;-63
2022/01/06 06:20:27;;;;;;;15.23;9.33;;;;;;;6.74;94.57;149352.72;1641161;87;21555;-62
2022/01/06 06:22:53;;;;;;;15.88;9.75;;;;;;;6.75;94.24;149355.36;1641685;87;21106;-63
2022/01/06 06:25:20;;;;;;;19.32;8.50;;;;;;;6.79;94.12;149365.69;1641500;86;21479;-62
2022/01/06 06:27:47;;;;;;;17.15;8.90;;;;;;;6.83;94.06;149376.03;1641362;87;21121;-62
2022/01/06 06:30:14;;;;;;;15.38;8.83;;;;;;;6.90;93.65;149391.56;1641559;86;21515;-63
2022/01/06 06:32:40;;;;;;;16.02;9.13;;;;;;;6.92;93.18;149398.05;1641066;86;21070;-63
2022/01/06 06:35:08;;;;;;;16.05;8.70;;;;;;;6.96;92.79;149407.08;1641593;86;21354;-63
2022/01/06 06:37:34;;;;;;;15.43;9.45;;;;;;;6.99;92.62;149414.88;1641309;87;21820;-63
2022/01/06 06:40:01;;;;;;;14.33;8.90;;;;;;;7.05;92.39;149429.08;1641605;86;21058;-58
2022/01/06 06:42:31;;;;;;;18.12;10.15;;;;;;;7.09;92.08;149440.75;1640679;86;21133;-58
2022/01/06 06:44:58;;;;;;;16.32;9.23;;;;;;;7.11;91.96;149445.91;1641029;87;21065;-62
2022/01/06 06:47:25;;;;;;;16.60;9.48;;;;;;;7.15;91.62;149456.25;1641320;86;20991;-63
2022/01/06 06:49:55;;;;;;;17.57;10.18;;;;;;;7.16;91.34;149458.84;1640867;86;21164;-63
2022/01/06 06:52:20;;;;;;;16.37;10.85;;;;;;;7.17;91.01;149461.44;1640596;86;21094;-63
2022/01/06 06:54:48;;;;;;;17.10;9.45;;;;;;;7.16;90.79;149458.84;1640504;86;21130;-58
2022/01/06 06:57:14;;;;;;;18.00;9.33;;;;;;;7.14;90.56;149453.67;1639050;85;20959;-59
2022/01/06 06:59:44;;;;;;;14.98;9.20;;;;;;;7.14;90.69;149453.67;1638493;85;21173;-59
2022/01/06 07:02:10;;;;;;;16.67;9.73;;;;;;;7.15;90.67;149454.98;1638973;85;21134;-62
2022/01/06 07:04:37;;;;;;;16.93;9.58;;;;;;;7.17;90.74;149461.44;1638992;85;21118;-62
2022/01/06 07:07:05;;;;;;;16.95;9.70;;;;;;;7.21;90.77;149469.25;1639532;85;20986;-64
2022/01/06 07:09:32;;;;;;;19.77;10.00;;;;;;;7.26;90.75;149482.17;1639093;85;21535;-63
2022/01/06 07:11:59;;;;;;;16.82;9.00;;;;;;;7.31;90.72;149495.11;1639390;86;21559;-63
2022/01/06 07:14:25;;;;;;;18.23;9.63;;;;;;;7.35;90.46;149505.45;1638995;87;21135;-63
2022/01/06 07:16:53;;;;;;;15.03;9.58;;;;;;;7.38;90.40;149511.95;1639148;85;22216;-63
2022/01/06 07:19:19;;;;;;;15.95;9.18;;;;;;;7.38;90.25;149513.22;1639538;85;21019;-59
2022/01/06 07:21:49;;;;;;;17.42;9.43;;;;;;;7.38;90.10;149513.22;1638891;85;21531;-60
2022/01/06 07:24:18;;;;;;;14.98;9.25;;;;;;;7.39;90.25;149515.80;1639031;85;21012;-59
2022/01/06 07:26:45;;;;;;;16.60;9.93;;;;;;;7.41;90.15;149519.72;1639303;85;22608;-61
2022/01/06 07:29:13;;;;;;;17.75;9.83;;;;;;;7.44;90.35;149528.78;1639505;86;21404;-60
2022/01/06 07:31:39;;;;;;;16.70;9.30;;;;;;;7.51;90.23;149544.31;1639202;85;21085;-62
2022/01/06 07:34:06;;;;;;;16.37;9.88;;;;;;;7.54;90.17;149552.06;1639576;87;21080;-58
2022/01/06 07:36:33;;;;;;;21.02;10.05;;;;;;;7.59;90.26;149565.00;1639101;85;21031;-62
2022/01/06 07:39:00;;;;;;;17.20;9.75;;;;;;;7.66;90.23;149581.84;1639354;85;21510;-62
2022/01/06 07:41:27;;;;;;;19.17;9.50;;;;;;;7.72;90.24;149598.69;1639292;85;21062;-63
2022/01/06 07:43:53;;;;;;;18.87;9.13;;;;;;;7.78;90.09;149612.95;1639150;87;21034;-62
2022/01/06 07:46:21;;;;;;;19.50;10.50;;;;;;;7.84;90.00;149627.16;1639467;87;21458;-63
2022/01/06 07:48:57;;;;;;;18.27;10.78;;;;;;;7.88;89.99;149637.56;1639172;87;21145;-62
2022/01/06 07:51:25;;;;;;;19.30;11.00;;;;;;;7.94;89.93;149653.08;1639678;85;21263;-59
2022/01/06 07:53:52;;;;;;;24.00;12.28;;;;;;;7.99;89.90;149666.03;1639245;85;21091;-59
2022/01/06 07:56:19;;;;;;;28.83;12.18;;;;;;;8.06;89.84;149682.88;1640346;86;21031;-59
2022/01/06 07:58:46;;;;;;;31.73;14.23;;;;;;;8.14;89.96;149702.31;1641215;86;21709;-61
2022/01/06 08:01:13;;;;;;;22.58;11.93;;;;;;;8.24;89.79;149726.92;1641770;87;21476;-62
2022/01/06 08:03:41;;;;;;;24.12;12.28;;;;;;;8.31;89.59;149746.38;1641199;86;21587;-63
2022/01/06 08:06:09;;;;;;;28.40;13.28;;;;;;;8.40;89.44;149768.39;1641523;86;21038;-60
2022/01/06 08:08:38;;;;;;;26.20;13.03;;;;;;;8.47;89.26;149785.19;1641414;86;21082;-60
2022/01/06 08:11:04;;;;;;;29.00;13.20;;;;;;;8.55;89.10;149806.00;1641588;86;21102;-57
2022/01/06 08:13:31;;;;;;;25.77;13.62;;;;;;;8.64;88.87;149826.72;1641362;87;21699;-63
2022/01/06 08:15:58;;;;;;;19.85;12.03;;;;;;;8.72;88.69;149847.44;1641517;86;21193;-63
2022/01/06 08:18:24;;;;;;;26.82;12.58;;;;;;;8.83;88.49;149875.97;1641810;86;21047;-62
2022/01/06 08:20:51;;;;;;;22.37;12.25;;;;;;;8.93;87.98;149899.28;1641153;86;21141;-58
2022/01/06 08:23:18;;;;;;;23.75;12.30;;;;;;;9.03;87.80;149925.23;1641591;86;20992;-59
2022/01/06 08:25:45;;;;;;;21.12;12.07;;;;;;;9.12;87.29;149948.53;1641145;87;21227;-59
2022/01/06 08:28:12;;;;;;;26.87;13.75;;;;;;;9.21;86.88;149969.31;1641742;87;21524;-58
2022/01/06 08:30:40;;;;;;;20.30;12.05;;;;;;;9.29;86.57;149990.03;1641200;86;21026;-59
2022/01/06 08:33:06;;;;;;;27.95;13.75;;;;;;;9.37;86.25;150010.77;1641913;87;21135;-58
2022/01/06 08:35:35;;;;;;;28.35;12.70;;;;;;;9.49;86.00;150039.31;1641281;86;21145;-58
2022/01/06 08:38:02;;;;;;;26.75;13.03;;;;;;;9.57;85.68;150060.03;1641814;86;21062;-57
2022/01/06 08:40:30;;;;;;;24.50;12.98;;;;;;;9.67;85.46;150086.00;1641255;86;21132;-63
2022/01/06 08:42:57;;;;;;;21.05;12.73;;;;;;;9.73;85.26;150101.55;1641512;86;20978;-63
2022/01/06 08:45:24;;;;;;;20.75;12.20;;;;;;;9.80;85.01;150118.42;1641481;86;21007;-59
2022/01/06 08:47:51;;;;;;;18.27;11.45;;;;;;;9.86;84.79;150132.70;1641266;86;21103;-59
2022/01/06 08:50:17;;;;;;;24.23;12.78;;;;;;;9.90;84.45;150143.06;1641583;87;21448;-58
2022/01/06 08:52:46;;;;;;;26.93;13.22;;;;;;;9.96;84.30;150157.34;1641107;86;22331;-63
2022/01/06 08:55:12;;;;;;;21.95;12.98;;;;;;;10.01;84.29;150171.58;1641751;86;21027;-60
2022/01/06 08:57:39;;;;;;;22.40;12.40;;;;;;;10.09;84.02;150189.77;1641370;86;21090;-60
2022/01/06 09:00:09;;;;;;;19.98;11.65;;;;;;;10.15;83.95;150206.59;1641762;86;20960;-59
2022/01/06 09:02:36;;;;;;;24.00;13.80;;;;;;;10.20;83.68;150218.28;1641646;86;21122;-63
2022/01/06 09:05:06;;;;;;;19.87;12.53;;;;;;;10.28;83.42;150239.08;1641991;86;21120;-62
2022/01/06 09:07:36;;;;;;;22.73;12.65;;;;;;;10.35;83.20;150255.91;1641274;87;21073;-62
2022/01/06 09:10:05;;;;;;;19.77;11.20;;;;;;;10.42;82.96;150272.83;1641813;87;21106;-64
2022/01/06 09:12:32;;;;;;;18.55;10.85;;;;;;;10.51;82.46;150296.20;1641379;87;22234;-58
2022/01/06 09:14:59;;;;;;;15.53;10.40;;;;;;;10.56;81.45;150307.86;1641582;87;21118;-58
2022/01/06 09:17:26;;;;;;;19.50;10.43;;;;;;;10.58;81.01;150314.36;1641413;87;21039;-58
2022/01/06 09:19:52;;;;;;;19.73;10.90;;;;;;;10.63;80.80;150326.05;1641453;86;21034;-63
2022/01/06 09:22:19;;;;;;;19.73;10.75;;;;;;;10.68;80.49;150337.70;1641528;87;21031;-60
2022/01/06 09:24:48;;;;;;;21.17;10.95;;;;;;;10.77;80.33;150361.09;1641476;86;21086;-59
2022/01/06 09:27:14;;;;;;;19.45;10.85;;;;;;;10.84;79.94;150379.23;1641670;86;21063;-63
2022/01/06 09:29:41;;;;;;;18.27;11.30;;;;;;;10.95;79.55;150405.22;1649094;85;21064;-63
2022/01/06 09:32:09;;;;;;;21.10;10.80;;;;;;;11.01;79.27;150420.78;1667540;86;20957;-63
2022/01/06 09:34:37;;;;;;;17.45;11.03;;;;;;;11.07;78.88;150436.36;1666896;86;21400;-63
2022/01/06 09:37:03;;;;;;;17.57;11.80;;;;;;;11.12;78.42;150449.33;1659575;86;21379;-64
2022/01/06 09:39:31;;;;;;;19.27;11.20;;;;;;;11.11;77.46;150446.73;1654012;85;22090;-63
2022/01/06 09:41:58;;;;;;;26.10;13.40;;;;;;;11.07;77.64;150436.36;1621498;88;21091;-63
2022/01/06 09:44:25;;;;;;;22.00;11.73;;;;;;;11.09;77.85;150440.28;1638808;86;21048;-63
2022/01/06 09:46:55;;;;;;;18.42;11.80;;;;;;;11.13;77.94;150450.64;1638466;86;21045;-62
2022/01/06 09:49:22;;;;;;;22.10;11.30;;;;;;;11.21;78.14;150470.12;1639241;87;21556;-62
2022/01/06 09:51:51;;;;;;;17.62;10.58;;;;;;;11.27;77.75;150487.02;1638922;87;21147;-62
2022/01/06 09:54:19;;;;;;;28.10;13.22;;;;;;;11.28;77.34;150489.61;1638959;86;21387;-62
2022/01/06 09:56:46;;;;;;;18.75;11.80;;;;;;;11.28;76.81;150489.61;1651082;85;21151;-59
2022/01/06 09:59:13;;;;;;;28.52;14.78;;;;;;;11.27;76.94;150485.69;1669362;84;21599;-59
2022/01/06 10:01:40;;;;;;;22.45;11.78;;;;;;;11.25;77.11;150480.50;1662048;84;21147;-63
2022/01/06 10:04:27;;;;;;;23.02;11.25;;;;;;;11.27;77.08;150487.02;1662434;84;21500;-64
2022/01/06 10:07:08;;;;;;;21.12;11.48;;;;;;;11.28;77.03;150489.61;1693208;83;22845;-63
2022/01/06 10:09:37;;;;;;;20.70;11.65;;;;;;;11.28;77.29;150489.61;1694616;84;21123;-63
2022/01/06 10:12:11;;;;;;;19.90;11.57;;;;;;;11.31;77.43;150496.06;1694502;82;21059;-64
2022/01/06 10:14:45;;;;;;;18.00;11.70;;;;;;;11.36;77.65;150509.05;1694947;83;21032;-63
2022/01/06 10:17:17;;;;;;;24.35;12.50;;;;;;;11.43;77.45;150527.25;1695015;82;21004;-59
2022/01/06 10:19:46;;;;;;;16.75;11.18;;;;;;;11.53;77.18;150550.61;1691964;83;21094;-62
2022/01/06 10:22:16;;;;;;;18.52;12.37;;;;;;;11.55;77.09;150555.80;1695555;82;20977;-60
2022/01/06 10:24:44;;;;;;;26.93;12.63;;;;;;;11.54;76.86;150553.20;1695145;82;21067;-59
2022/01/06 10:27:13;;;;;;;23.27;13.70;;;;;;;11.54;77.01;150553.20;1695488;82;21217;-60
2022/01/06 10:29:50;;;;;;;20.50;12.00;;;;;;;11.53;77.08;150551.94;1695011;84;21111;-60
2022/01/06 10:32:20;;;;;;;20.12;11.97;;;;;;;11.58;77.07;150564.91;1695414;82;21291;-63
2022/01/06 10:34:53;;;;;;;20.27;11.93;;;;;;;11.64;77.06;150579.20;1694950;84;20980;-63
2022/01/06 10:37:24;;;;;;;29.05;11.33;;;;;;;11.69;76.93;150592.17;1695634;84;20961;-64
2022/01/06 10:39:57;;;;;;;23.98;11.35;;;;;;;11.80;76.83;150618.12;1694829;83;21072;-63
2022/01/06 10:42:30;;;;;;;21.05;11.63;;;;;;;11.90;76.60;150644.13;1694614;82;21538;-63
2022/01/06 10:45:08;;;;;;;22.45;11.65;;;;;;;11.98;76.03;150664.89;1694872;84;21490;-63
2022/01/06 10:47:37;;;;;;;20.00;11.43;;;;;;;12.03;75.90;150677.92;1694616;83;21020;-62
2022/01/06 10:50:26;;;;;;;19.73;11.57;;;;;;;12.11;75.62;150696.14;1688243;84;21072;-63
2022/01/06 10:53:08;;;;;;;19.12;11.65;;;;;;;12.17;75.43;150711.72;1638240;83;21095;-63
2022/01/06 10:55:41;;;;;;;23.45;11.90;;;;;;;12.22;75.13;150724.70;1694811;84;21024;-62
2022/01/06 10:58:10;;;;;;;18.50;10.70;;;;;;;12.25;74.62;150732.50;1695419;82;21108;-62
2022/01/06 11:00:42;;;;;;;21.85;10.98;;;;;;;12.24;74.48;150729.89;1695282;82;20999;-63
2022/01/06 11:03:13;;;;;;;23.22;10.98;;;;;;;12.24;74.28;150729.89;1695367;83;21147;-63
2022/01/06 11:05:50;;;;;;;23.47;11.63;;;;;;;12.23;74.03;150727.30;1694884;83;21083;-63
2022/01/06 11:08:18;;;;;;;23.27;11.30;;;;;;;12.25;74.21;150731.22;1695662;82;21033;-64
2022/01/06 11:10:49;;;;;;;19.73;11.25;;;;;;;12.28;74.15;150740.33;1695295;84;21505;-62
2022/01/06 11:13:17;;;;;;;20.90;10.72;;;;;;;12.34;74.04;150753.31;1695417;84;21056;-65
2022/01/06 11:15:44;;;;;;;16.57;10.43;;;;;;;12.37;73.84;150761.09;1694856;83;21054;-63
2022/01/06 11:18:19;;;;;;;16.87;10.68;;;;;;;12.41;73.71;150772.81;1695288;83;21012;-64
2022/01/06 11:20:46;;;;;;;19.70;10.28;;;;;;;12.44;73.62;150779.27;1695451;82;21071;-60
2022/01/06 11:23:23;;;;;;;16.15;10.68;;;;;;;12.49;73.41;150790.98;1695688;83;21820;-59
2022/01/06 11:26:07;;;;;;;21.77;11.43;;;;;;;12.52;73.44;150798.77;1694749;83;21029;-59
2022/01/06 11:28:35;;;;;;;18.32;11.43;;;;;;;12.54;73.39;150805.28;1694961;84;21087;-59
2022/01/06 11:31:19;;;;;;;20.50;10.85;;;;;;;12.60;73.42;150820.88;1695085;84;21035;-59
2022/01/06 11:33:48;;;;;;;21.30;10.90;;;;;;;12.64;73.38;150828.66;1695588;83;21588;-60